Time;durP1;ratioP1;P1;durP2;ratioP2;P2;SDS_P1;SDS_P2;PMS_P1;PMS_P2;Temp;Humidity;BMP_temperature;BMP_pressure;BME280_temperature;BME280_humidity;BME280_pressure;Samples;Min_cycle;Max_cycle;Signal;HPM_P1;HPM_P2
2024/02/24 00:01:00;;;;;;;24.40;9.20;;;;;;;6.07;100.00;99076.16;214002;1287;140308;-87
2024/02/24 00:06:00;;;;;;;41.70;13.20;;;;;;;6.07;100.00;99076.30;214309;1288;138505;-87
2024/02/24 00:11:00;;;;;;;30.80;10.60;;;;;;;6.07;100.00;99067.41;213771;1285;140483;-87
2024/02/24 00:16:04;;;;;;;25.60;7.00;;;;;;;6.11;100.00;99063.14;214254;1284;139638;-88
2024/02/24 00:21:04;;;;;;;23.10;7.40;;;;;;;6.14;100.00;99058.23;214085;1285;140582;-89
2024/02/24 00:26:05;;;;;;;20.80;5.30;;;;;;;6.13;100.00;99050.83;214160;1284;138862;-88
2024/02/24 00:31:05;;;;;;;22.30;7.00;;;;;;;6.11;100.00;99043.86;213441;1290;139718;-88
2024/02/24 00:36:06;;;;;;;9.00;3.70;;;;;;;6.05;100.00;99030.55;214125;1286;98087;-88
2024/02/24 00:41:06;;;;;;;6.20;2.40;;;;;;;6.05;100.00;99010.20;213558;1286;140476;-88
2024/02/24 00:46:07;;;;;;;20.80;6.50;;;;;;;6.04;100.00;98988.19;214090;1285;138624;-88
2024/02/24 00:51:08;;;;;;;19.50;9.40;;;;;;;6.01;100.00;98985.75;213014;1290;139944;-87
2024/02/24 00:56:08;;;;;;;10.00;4.60;;;;;;;6.01;100.00;98981.30;213826;1288;139214;-87
2024/02/24 01:01:09;;;;;;;11.80;4.70;;;;;;;5.98;100.00;98961.56;213439;1290;139982;-88
2024/02/24 01:06:10;;;;;;;7.90;2.90;;;;;;;6.01;100.00;98967.73;214197;1288;98048;-87
2024/02/24 01:11:10;;;;;;;8.50;2.50;;;;;;;6.05;100.00;98981.95;213613;1284;140505;-86
2024/02/24 01:16:10;;;;;;;6.80;2.60;;;;;;;6.07;100.00;98985.40;214012;1288;138609;-87
2024/02/24 01:21:11;;;;;;;7.00;2.40;;;;;;;6.08;100.00;98976.73;213540;1285;139663;-86
2024/02/24 01:26:11;;;;;;;6.90;2.00;;;;;;;6.08;100.00;98973.55;214049;1285;138548;-86
2024/02/24 01:31:12;;;;;;;4.80;1.90;;;;;;;6.05;100.00;98951.69;213303;1286;139982;-86
2024/02/24 01:36:12;;;;;;;4.20;1.90;;;;;;;6.02;100.00;98936.21;213962;1289;98522;-87
2024/02/24 01:41:12;;;;;;;3.50;1.60;;;;;;;5.97;100.00;98925.58;213384;1286;140634;-87
2024/02/24 01:46:15;;;;;;;4.00;1.60;;;;;;;5.95;100.00;98915.66;213904;1287;139091;-84
2024/02/24 01:51:15;;;;;;;2.80;1.30;;;;;;;5.94;100.00;98915.27;213682;1286;138709;-87
2024/02/24 01:56:16;;;;;;;4.90;1.90;;;;;;;5.95;100.00;98918.02;213268;1293;141293;-87
2024/02/24 02:01:17;;;;;;;5.20;1.60;;;;;;;5.96;100.00;98903.73;213662;1287;139505;-89
2024/02/24 02:06:18;;;;;;;5.00;1.80;;;;;;;5.97;100.00;98901.64;213650;1288;140661;-85
2024/02/24 02:11:18;;;;;;;4.50;1.90;;;;;;;5.96;100.00;98894.92;213877;1287;138844;-88
2024/02/24 02:16:19;;;;;;;4.80;2.40;;;;;;;5.97;100.00;98902.73;213446;1287;140102;-88
2024/02/24 02:21:19;;;;;;;4.80;2.30;;;;;;;5.99;100.00;98904.30;213910;1286;138689;-88
2024/02/24 02:26:21;;;;;;;7.00;2.30;;;;;;;5.99;100.00;98900.86;213539;1285;139953;-89
2024/02/24 02:31:21;;;;;;;5.50;2.20;;;;;;;5.98;100.00;98895.63;214164;1288;138515;-89
2024/02/24 02:36:22;;;;;;;6.40;3.50;;;;;;;5.97;100.00;98883.85;213804;1288;139991;-88
2024/02/24 02:41:22;;;;;;;4.10;2.30;;;;;;;5.95;100.00;98874.09;214411;1285;138309;-89
2024/02/24 02:46:23;;;;;;;3.60;1.90;;;;;;;5.91;100.00;98871.57;213839;1285;141425;-89
2024/02/24 02:51:23;;;;;;;4.10;2.00;;;;;;;5.91;100.00;98862.05;214345;1288;139567;-89
2024/02/24 02:56:24;;;;;;;4.40;2.10;;;;;;;5.88;100.00;98861.66;213706;1288;140341;-88
2024/02/24 03:01:24;;;;;;;5.00;2.00;;;;;;;5.88;100.00;98859.31;215605;1288;138987;-88
2024/02/24 03:06:25;;;;;;;5.90;2.60;;;;;;;5.89;100.00;98867.51;213793;1283;139864;-90
2024/02/24 03:11:25;;;;;;;6.20;3.40;;;;;;;5.88;100.00;98874.29;214223;1287;138298;-90
2024/02/24 03:16:26;;;;;;;9.70;4.90;;;;;;;5.86;100.00;98874.36;213625;1285;140349;-90
2024/02/24 03:21:27;;;;;;;11.20;6.00;;;;;;;5.86;100.00;98858.45;214330;1285;139527;-90
2024/02/24 03:26:28;;;;;;;10.80;5.90;;;;;;;5.87;100.00;98866.64;214112;1286;140642;-91
2024/02/24 03:31:30;;;;;;;10.90;5.80;;;;;;;5.87;100.00;98868.05;214332;1285;139105;-92
2024/02/24 03:36:30;;;;;;;9.80;5.50;;;;;;;5.86;100.00;98854.70;213913;1288;141305;-91
2024/02/24 03:41:31;;;;;;;10.00;4.90;;;;;;;5.86;100.00;98841.20;214378;1288;138921;-90
2024/02/24 03:46:32;;;;;;;10.90;4.20;;;;;;;5.84;100.00;98837.23;213776;1285;140596;-92
2024/02/24 03:51:32;;;;;;;8.30;4.40;;;;;;;5.83;100.00;98850.33;214227;1288;139324;-90
2024/02/24 03:56:33;;;;;;;9.20;4.40;;;;;;;5.85;100.00;98855.32;213791;1285;140878;-90
2024/02/24 04:01:33;;;;;;;7.20;3.50;;;;;;;5.85;100.00;98856.10;215828;1284;138536;-89
2024/02/24 04:06:33;;;;;;;5.70;2.90;;;;;;;5.86;100.00;98854.32;213987;1285;139814;-90
2024/02/24 04:11:35;;;;;;;5.60;2.60;;;;;;;5.84;100.00;98856.17;214224;1285;139004;-90
2024/02/24 04:16:35;;;;;;;6.10;2.60;;;;;;;5.83;100.00;98858.98;213646;1285;140632;-90
2024/02/24 04:21:36;;;;;;;4.80;2.00;;;;;;;5.81;100.00;98848.67;214285;1288;139045;-90
2024/02/24 04:26:36;;;;;;;2.70;1.60;;;;;;;5.78;100.00;98842.00;213611;1284;140177;-91
2024/02/24 04:31:37;;;;;;;3.10;1.70;;;;;;;5.75;100.00;98837.23;214154;1288;138658;-91
2024/02/24 04:36:42;;;;;;;2.90;1.70;;;;;;;5.74;100.00;98831.21;213761;1287;139770;-90
2024/02/24 04:41:42;;;;;;;4.70;2.30;;;;;;;5.71;100.00;98833.39;214077;1287;139013;-90
2024/02/24 04:46:43;;;;;;;5.20;2.10;;;;;;;5.68;100.00;98843.42;213390;1290;140040;-89
2024/02/24 04:51:43;;;;;;;4.00;1.60;;;;;;;5.67;100.00;98846.47;214003;1285;139579;-90
2024/02/24 04:56:43;;;;;;;4.00;1.50;;;;;;;5.64;100.00;98841.31;213739;1288;139973;-90
2024/02/24 05:01:44;;;;;;;2.10;1.20;;;;;;;5.58;100.00;98874.48;214399;1287;138618;-89
2024/02/24 05:06:44;;;;;;;3.60;1.20;;;;;;;5.51;100.00;98861.27;214178;1287;140689;-89
2024/02/24 05:11:45;;;;;;;3.30;1.00;;;;;;;5.48;100.00;98875.60;214001;1287;138773;-89
2024/02/24 05:16:45;;;;;;;4.50;1.10;;;;;;;5.42;100.00;98900.50;213395;1290;139933;-89
2024/02/24 05:21:47;;;;;;;3.20;1.20;;;;;;;5.36;100.00;98913.93;214090;1290;139002;-89
2024/02/24 05:26:47;;;;;;;1.30;0.90;;;;;;;5.35;100.00;98916.82;213571;1285;140024;-89
2024/02/24 05:31:48;;;;;;;2.00;1.10;;;;;;;5.31;100.00;98911.95;214400;1284;138825;-89
2024/02/24 05:36:48;;;;;;;2.60;1.20;;;;;;;5.28;100.00;98914.73;213791;1288;139898;-89
2024/02/24 05:41:49;;;;;;;2.30;1.10;;;;;;;5.25;100.00;98915.80;214241;1285;138378;-91
2024/02/24 05:46:50;;;;;;;2.20;1.10;;;;;;;5.23;100.00;98924.75;213707;1288;140145;-90
2024/02/24 05:51:50;;;;;;;3.60;2.00;;;;;;;5.16;100.00;98932.25;214268;1285;138559;-90
2024/02/24 05:56:51;;;;;;;4.00;1.50;;;;;;;5.12;100.00;98951.52;213696;1285;139992;-90
2024/02/24 06:01:51;;;;;;;4.40;1.10;;;;;;;5.07;100.00;98960.91;214115;1284;138535;-90
2024/02/24 06:06:52;;;;;;;4.30;1.60;;;;;;;5.03;100.00;98975.05;214639;1288;140231;-91
2024/02/24 06:11:55;;;;;;;2.80;1.60;;;;;;;4.98;100.00;98988.33;213873;1286;138567;-91
2024/02/24 06:16:55;;;;;;;3.00;1.60;;;;;;;4.89;100.00;99002.80;213417;1291;142223;-90
2024/02/24 06:21:55;;;;;;;2.40;1.50;;;;;;;4.87;100.00;99008.45;214265;1285;138628;-90
2024/02/24 06:26:56;;;;;;;2.90;1.40;;;;;;;4.85;100.00;99006.17;213801;1285;139500;-91
2024/02/24 06:31:56;;;;;;;3.30;1.20;;;;;;;4.85;100.00;99008.35;214187;1288;138536;-91
2024/02/24 06:36:57;;;;;;;5.40;1.60;;;;;;;4.85;100.00;99005.94;213867;1284;139296;-90
2024/02/24 06:41:57;;;;;;;6.40;2.40;;;;;;;4.83;100.00;99008.34;214251;1288;138581;-91
2024/02/24 06:46:58;;;;;;;4.10;2.00;;;;;;;4.85;100.00;99011.63;213724;1285;140518;-89
2024/02/24 06:51:58;;;;;;;5.50;2.40;;;;;;;4.88;100.00;99016.33;214193;1288;139234;-88
2024/02/24 06:56:59;;;;;;;7.30;2.90;;;;;;;4.90;100.00;99024.77;213636;1288;140323;-88
2024/02/24 07:01:59;;;;;;;6.90;2.70;;;;;;;4.94;100.00;99035.01;214154;1288;139336;-88
2024/02/24 07:06:59;;;;;;;3.60;1.90;;;;;;;4.98;100.00;99048.39;214480;1285;140207;-88
2024/02/24 07:12:00;;;;;;;7.00;2.80;;;;;;;5.03;100.00;99064.87;214266;1288;138278;-89
2024/02/24 07:17:00;;;;;;;8.40;2.70;;;;;;;5.10;100.00;99084.58;213826;1288;140077;-89
2024/02/24 07:22:01;;;;;;;3.60;1.70;;;;;;;5.17;100.00;99098.27;214312;1285;138469;-89
2024/02/24 07:27:01;;;;;;;4.60;1.80;;;;;;;5.22;100.00;99105.50;213802;1285;139988;-88
2024/02/24 07:32:02;;;;;;;5.90;2.50;;;;;;;5.28;100.00;99123.42;213884;1287;138829;-89
2024/02/24 07:37:03;;;;;;;5.50;2.70;;;;;;;5.33;100.00;99121.06;213590;1287;140675;-89
2024/02/24 07:42:03;;;;;;;5.40;2.40;;;;;;;5.37;100.00;99128.36;213886;1287;138533;-89
2024/02/24 07:47:06;;;;;;;5.70;2.30;;;;;;;5.41;100.00;99138.29;213611;1288;139918;-88
2024/02/24 07:52:07;;;;;;;5.30;2.60;;;;;;;5.49;100.00;99146.19;214285;1287;138689;-89
2024/02/24 07:57:07;;;;;;;7.30;2.90;;;;;;;5.60;100.00;99142.46;213588;1285;140980;-88
2024/02/24 08:02:07;;;;;;;10.00;3.80;;;;;;;5.65;100.00;99150.77;214219;1285;138900;-89
2024/02/24 08:07:08;;;;;;;5.20;2.50;;;;;;;5.70;100.00;99153.64;214248;1288;140125;-89
2024/02/24 08:12:08;;;;;;;5.80;2.60;;;;;;;5.76;100.00;99163.45;214705;1290;98192;-86
2024/02/24 08:17:10;;;;;;;6.60;2.70;;;;;;;5.83;100.00;99174.08;214201;1288;140131;-86
2024/02/24 08:22:11;;;;;;;7.90;2.30;;;;;;;5.91;100.00;99184.54;214616;1288;140009;-88
2024/02/24 08:27:11;;;;;;;9.60;3.60;;;;;;;6.03;100.00;99189.09;214028;1285;470119;-87
2024/02/24 08:32:12;;;;;;;7.00;2.50;;;;;;;6.12;100.00;99194.63;214859;1288;138847;-86
2024/02/24 08:37:13;;;;;;;10.00;4.10;;;;;;;6.21;100.00;99203.45;213694;1288;140207;-87
2024/02/24 08:42:13;;;;;;;6.60;2.40;;;;;;;6.31;100.00;99205.34;214456;1285;98507;-87
2024/02/24 08:47:13;;;;;;;7.00;2.80;;;;;;;6.38;100.00;99221.31;213639;1288;139721;-86
2024/02/24 08:52:14;;;;;;;3.50;2.00;;;;;;;6.49;100.00;99226.09;214282;1285;138643;-88
2024/02/24 08:57:14;;;;;;;5.20;2.20;;;;;;;6.62;100.00;99225.34;213765;1285;139916;-87
2024/02/24 09:02:15;;;;;;;4.70;2.10;;;;;;;6.78;100.00;99230.61;214055;1288;138765;-87
2024/02/24 09:07:16;;;;;;;6.60;2.70;;;;;;;6.99;100.00;99230.11;213661;1288;139893;-88
2024/02/24 09:12:16;;;;;;;5.70;2.80;;;;;;;7.27;100.00;99238.88;214327;1288;98398;-89
2024/02/24 09:17:16;;;;;;;6.90;2.70;;;;;;;7.56;100.00;99252.07;213855;1286;140176;-91
2024/02/24 09:22:17;;;;;;;7.70;2.40;;;;;;;7.79;100.00;99255.12;214428;1288;138618;-89
2024/02/24 09:27:17;;;;;;;8.00;2.80;;;;;;;7.96;100.00;99269.58;213988;1288;140287;-87
2024/02/24 09:32:18;;;;;;;5.60;2.50;;;;;;;8.16;100.00;99283.90;214630;1285;139215;-89
2024/02/24 09:37:19;;;;;;;5.10;2.30;;;;;;;8.41;100.00;99285.45;214645;1288;140110;-87
2024/02/24 09:42:25;;;;;;;3.70;1.80;;;;;;;8.82;100.00;99295.73;215138;1285;97954;-87
2024/02/24 09:47:26;;;;;;;5.50;1.90;;;;;;;9.38;100.00;99302.88;215411;1285;139789;-87
2024/02/24 09:52:28;;;;;;;8.20;2.60;;;;;;;9.90;100.00;99312.52;218959;1285;138615;-88
2024/02/24 09:57:30;;;;;;;6.50;2.10;;;;;;;10.27;100.00;99322.35;214081;1288;140121;-86
2024/02/24 10:02:30;;;;;;;13.10;2.70;;;;;;;10.43;100.00;99333.10;214488;1285;140249;-89
2024/02/24 10:07:30;;;;;;;7.20;3.00;;;;;;;10.55;100.00;99336.73;214243;1288;140236;-88
2024/02/24 10:12:31;;;;;;;8.10;3.00;;;;;;;10.61;100.00;99344.22;214927;1286;97934;-89
2024/02/24 10:17:31;;;;;;;10.80;3.90;;;;;;;10.44;100.00;99350.70;213662;1288;140407;-91
2024/02/24 10:22:32;;;;;;;16.50;3.50;;;;;;;10.37;100.00;99356.07;214154;1288;139148;-89
2024/02/24 10:27:33;;;;;;;9.40;3.70;;;;;;;10.35;100.00;99358.21;213539;1288;140750;-90
2024/02/24 10:32:33;;;;;;;9.50;3.80;;;;;;;10.56;100.00;99361.15;213880;1291;139121;-90
2024/02/24 10:37:36;;;;;;;9.60;3.90;;;;;;;10.72;100.00;99371.20;213739;1288;139887;-89
2024/02/24 10:42:38;;;;;;;10.80;4.60;;;;;;;10.65;100.00;99379.48;214221;1287;105787;-90
2024/02/24 10:47:38;;;;;;;11.30;5.00;;;;;;;10.53;100.00;99385.15;213708;1286;140537;-92
2024/02/24 10:52:40;;;;;;;11.60;6.00;;;;;;;10.33;100.00;99396.64;213964;1287;138853;-88
2024/02/24 10:57:41;;;;;;;14.40;7.00;;;;;;;10.14;100.00;99399.55;213807;1288;140211;-91
2024/02/24 11:02:41;;;;;;;9.80;4.60;;;;;;;10.20;100.00;99405.25;214521;1286;140275;-89
2024/02/24 11:07:41;;;;;;;11.00;5.40;;;;;;;10.22;100.00;99410.91;213969;1285;140606;-91
2024/02/24 11:12:42;;;;;;;16.90;5.00;;;;;;;10.21;100.00;99409.88;214900;1285;99331;-92
2024/02/24 11:17:53;;;;;;;8.70;3.90;;;;;;;10.17;100.00;99409.83;213713;1293;140995;-92
2024/02/24 11:23:24;;;;;;;9.20;3.90;;;;;;;10.19;100.00;99417.67;214694;1285;140425;-92
2024/02/24 11:28:27;;;;;;;8.20;4.00;;;;;;;10.19;100.00;99421.52;214225;1285;140626;-91
2024/02/24 11:33:35;;;;;;;11.60;4.60;;;;;;;10.25;100.00;99427.88;214550;1284;139449;-92
2024/02/24 11:38:36;;;;;;;10.70;4.00;;;;;;;10.21;98.70;99431.11;214044;1288;140914;-90
2024/02/24 11:43:36;;;;;;;7.90;3.10;;;;;;;10.19;96.12;99440.78;215190;1288;140173;-92
2024/02/24 11:48:37;;;;;;;9.40;3.80;;;;;;;10.13;95.58;99441.50;214556;1288;140507;-91
2024/02/24 11:53:37;;;;;;;9.50;3.80;;;;;;;10.08;95.73;99443.24;215466;1288;139093;-88
2024/02/24 11:58:38;;;;;;;10.00;4.30;;;;;;;10.03;97.34;99447.17;215080;1284;140378;-88
2024/02/24 12:03:38;;;;;;;7.80;3.50;;;;;;;10.01;98.28;99447.08;215301;1284;138869;-90
2024/02/24 12:08:42;;;;;;;7.90;3.30;;;;;;;10.05;97.92;99450.06;214640;1288;140288;-91
2024/02/24 12:13:44;;;;;;;10.50;3.80;;;;;;;10.07;95.77;99453.38;214976;1285;138677;-92
2024/02/24 12:18:45;;;;;;;8.50;3.00;;;;;;;10.07;97.08;99456.04;213572;1286;140355;-90
2024/02/24 12:23:46;;;;;;;5.60;2.60;;;;;;;10.12;96.57;99463.10;213794;1287;138547;-92
2024/02/24 12:28:47;;;;;;;10.20;3.80;;;;;;;10.13;93.51;99466.64;213519;1287;140471;-89
2024/02/24 12:33:47;;;;;;;9.20;3.30;;;;;;;10.18;94.29;99466.30;214053;1285;138833;-90
2024/02/24 12:38:48;;;;;;;7.00;2.60;;;;;;;10.22;92.79;99475.09;213510;1286;140902;-89
2024/02/24 12:43:49;;;;;;;7.20;2.50;;;;;;;10.25;92.32;99481.59;213943;1288;139072;-87
2024/02/24 12:48:49;;;;;;;7.50;2.80;;;;;;;10.31;92.45;99486.06;213596;1288;139954;-90
2024/02/24 12:53:50;;;;;;;6.20;2.70;;;;;;;10.35;91.35;99492.58;213871;1288;139317;-87
2024/02/24 12:58:50;;;;;;;7.40;2.60;;;;;;;10.39;91.02;99500.73;213505;1288;140567;-89
2024/02/24 13:03:53;;;;;;;6.70;2.60;;;;;;;10.41;89.40;99506.39;213954;1288;140369;-90
2024/02/24 13:08:54;;;;;;;6.30;2.20;;;;;;;10.43;88.74;99511.80;213602;1288;140451;-90
2024/02/24 13:13:54;;;;;;;6.40;2.30;;;;;;;10.42;85.35;99516.20;214617;1286;139349;-90
2024/02/24 13:18:54;;;;;;;4.80;1.80;;;;;;;10.41;86.12;99517.39;213734;1289;140197;-91
2024/02/24 13:23:55;;;;;;;9.70;2.50;;;;;;;10.39;85.35;99528.00;214038;1288;137915;-88
2024/02/24 13:28:56;;;;;;;6.00;1.90;;;;;;;10.40;85.90;99529.65;213526;1288;139900;-91
2024/02/24 13:33:56;;;;;;;8.50;2.50;;;;;;;10.41;84.26;99533.42;214094;1286;138087;-89
2024/02/24 13:38:57;;;;;;;6.70;1.80;;;;;;;10.42;83.57;99532.39;213655;1288;140511;-87
2024/02/24 13:43:58;;;;;;;5.60;2.10;;;;;;;10.45;84.28;99531.44;214125;1285;138448;-89
2024/02/24 13:49:03;;;;;;;6.20;2.20;;;;;;;10.44;83.26;99533.56;213488;1290;140288;-88
2024/02/24 13:54:04;;;;;;;6.30;2.20;;;;;;;10.42;83.61;99543.31;213962;1291;137873;-89
2024/02/24 13:59:04;;;;;;;7.10;2.20;;;;;;;10.41;84.58;99546.06;214251;1288;139882;-88
2024/02/24 14:04:05;;;;;;;7.10;2.10;;;;;;;10.42;83.93;99554.16;215072;1288;138243;-88
2024/02/24 14:09:06;;;;;;;6.40;2.00;;;;;;;10.44;83.99;99560.77;214553;1286;140739;-88
2024/02/24 14:14:06;;;;;;;11.70;2.50;;;;;;;10.46;84.41;99567.60;215786;1284;138431;-89
2024/02/24 14:19:07;;;;;;;6.30;2.20;;;;;;;10.47;84.21;99569.48;214372;1288;139649;-89
2024/02/24 14:24:07;;;;;;;9.40;2.00;;;;;;;10.47;83.00;99572.46;214775;1290;97969;-88
2024/02/24 14:29:08;;;;;;;6.30;2.40;;;;;;;10.48;84.14;99578.42;213388;1286;139551;-90
2024/02/24 14:34:08;;;;;;;7.80;3.00;;;;;;;10.48;85.72;99589.03;213719;1286;138052;-88
2024/02/24 14:39:09;;;;;;;10.80;3.00;;;;;;;10.45;85.73;99589.20;213020;1290;139438;-88
2024/02/24 14:44:10;;;;;;;8.40;2.10;;;;;;;10.45;85.64;99589.75;213803;1290;138836;-86
2024/02/24 14:49:11;;;;;;;7.00;2.40;;;;;;;10.46;84.68;99589.84;213202;1285;141132;-87
2024/02/24 14:54:12;;;;;;;5.70;2.00;;;;;;;10.45;84.61;99600.45;214119;1289;98098;-87
2024/02/24 14:59:12;;;;;;;11.70;2.60;;;;;;;10.43;84.97;99609.80;213444;1292;139879;-87
2024/02/24 15:04:13;;;;;;;8.20;2.50;;;;;;;10.38;84.52;99620.73;213860;1286;139398;-87
2024/02/24 15:09:13;;;;;;;11.00;3.40;;;;;;;10.35;84.80;99624.34;213873;1290;140221;-87
2024/02/24 15:14:16;;;;;;;9.80;3.20;;;;;;;10.34;85.29;99635.12;213952;1286;140805;-88
2024/02/24 15:19:18;;;;;;;7.50;3.10;;;;;;;10.31;85.01;99633.16;213221;1291;139952;-86
2024/02/24 15:24:19;;;;;;;10.40;2.90;;;;;;;10.29;85.21;99631.11;213752;1290;99274;-86
2024/02/24 15:29:19;;;;;;;7.20;3.00;;;;;;;10.26;84.83;99640.46;213398;1289;140442;-87
2024/02/24 15:34:20;;;;;;;7.50;3.00;;;;;;;10.22;84.95;99652.25;213938;1286;138691;-88
2024/02/24 15:39:21;;;;;;;8.10;2.80;;;;;;;10.18;84.92;99663.33;213449;1285;139900;-86
2024/02/24 15:44:21;;;;;;;10.90;3.80;;;;;;;10.14;84.12;99669.38;213939;1285;140161;-87
2024/02/24 15:49:23;;;;;;;6.20;2.10;;;;;;;10.10;83.79;99676.21;213371;1291;140668;-86
2024/02/24 15:54:24;;;;;;;8.30;2.60;;;;;;;10.06;83.95;99680.84;214127;1285;99270;-88
2024/02/24 15:59:25;;;;;;;8.80;3.30;;;;;;;10.00;84.15;99689.42;213630;1288;139595;-88
2024/02/24 16:04:26;;;;;;;11.20;4.60;;;;;;;9.94;85.03;99694.14;213911;1288;138179;-87
2024/02/24 16:09:26;;;;;;;10.60;4.60;;;;;;;9.84;86.97;99693.02;213492;1290;140539;-88
2024/02/24 16:14:27;;;;;;;10.30;4.70;;;;;;;9.74;88.35;99697.78;214237;1288;140250;-87
2024/02/24 16:19:27;;;;;;;14.40;5.60;;;;;;;9.66;89.43;99700.51;213932;1288;140184;-88
2024/02/24 16:24:28;;;;;;;14.20;5.30;;;;;;;9.58;90.18;99708.72;214112;1284;98655;-85
2024/02/24 16:29:29;;;;;;;12.50;4.50;;;;;;;9.49;90.74;99715.60;213615;1285;139978;-89
2024/02/24 16:34:30;;;;;;;9.20;3.80;;;;;;;9.39;91.21;99714.69;214108;1288;138349;-88
2024/02/24 16:39:32;;;;;;;10.20;4.30;;;;;;;9.28;91.76;99716.77;213614;1286;140007;-88
2024/02/24 16:44:32;;;;;;;15.20;4.80;;;;;;;9.18;92.28;99721.65;213896;1285;139594;-88
2024/02/24 16:49:33;;;;;;;13.80;6.50;;;;;;;9.09;92.79;99721.83;213151;1287;139696;-88
2024/02/24 16:54:33;;;;;;;16.60;5.60;;;;;;;9.01;93.29;99725.79;214279;1285;97977;-90
2024/02/24 16:59:33;;;;;;;13.80;5.60;;;;;;;8.91;93.38;99722.27;214071;1285;139053;-89
2024/02/24 17:04:36;;;;;;;13.10;5.30;;;;;;;8.78;94.23;99730.19;214710;1288;138911;-90
2024/02/24 17:09:36;;;;;;;15.10;6.90;;;;;;;8.66;94.41;99734.58;213786;1285;139714;-87
2024/02/24 17:14:37;;;;;;;15.50;6.20;;;;;;;8.55;95.03;99725.79;214763;1283;139057;-89
2024/02/24 17:19:37;;;;;;;12.60;5.20;;;;;;;8.43;95.37;99722.80;214330;1285;140830;-89
2024/02/24 17:24:38;;;;;;;10.60;4.50;;;;;;;8.34;96.04;99726.33;214661;1284;112056;-90
2024/02/24 17:29:38;;;;;;;11.60;4.90;;;;;;;8.23;96.55;99742.96;214574;1285;139290;-89
2024/02/24 17:34:39;;;;;;;13.60;5.20;;;;;;;8.14;97.18;99753.52;214802;1285;139428;-89
2024/02/24 17:39:39;;;;;;;15.20;6.20;;;;;;;8.08;97.69;99764.56;213800;1288;140123;-88
2024/02/24 17:44:39;;;;;;;14.40;6.10;;;;;;;8.00;98.28;99766.75;214209;1284;139055;-89
2024/02/24 17:49:39;;;;;;;13.80;6.20;;;;;;;7.92;98.56;99772.99;213651;1284;139930;-87
2024/02/24 17:54:40;;;;;;;17.70;7.80;;;;;;;7.85;98.81;99782.63;214353;1285;98514;-88
2024/02/24 17:59:40;;;;;;;17.40;6.90;;;;;;;7.78;99.51;99790.38;213417;1288;139495;-87
2024/02/24 18:04:43;;;;;;;15.30;7.00;;;;;;;7.70;99.75;99791.67;214018;1292;138503;-88
2024/02/24 18:09:43;;;;;;;19.60;8.60;;;;;;;7.63;99.93;99793.02;213351;1289;139381;-88
2024/02/24 18:14:45;;;;;;;16.20;7.90;;;;;;;7.56;100.00;99794.48;214101;1288;138599;-87
2024/02/24 18:19:47;;;;;;;18.60;8.50;;;;;;;7.49;100.00;99802.92;213787;1288;139753;-88
2024/02/24 18:24:48;;;;;;;19.00;9.10;;;;;;;7.42;100.00;99806.89;214650;1285;98463;-88
2024/02/24 18:29:48;;;;;;;23.30;9.50;;;;;;;7.36;100.00;99811.50;213936;1285;140019;-89
2024/02/24 18:34:50;;;;;;;24.20;11.30;;;;;;;7.31;100.00;99821.83;214449;1285;138538;-89
2024/02/24 18:39:51;;;;;;;21.50;11.40;;;;;;;7.28;100.00;99825.30;213854;1288;141110;-88
2024/02/24 18:44:51;;;;;;;22.30;10.40;;;;;;;7.24;100.00;99830.88;214301;1284;139283;-88
2024/02/24 18:49:53;;;;;;;22.20;10.80;;;;;;;7.20;100.00;99837.93;213694;1284;140217;-88
2024/02/24 18:54:54;;;;;;;18.00;9.50;;;;;;;7.13;100.00;99843.08;214240;1284;97945;-87
2024/02/24 18:59:55;;;;;;;21.80;10.60;;;;;;;7.07;100.00;99851.73;213931;1285;139553;-89
2024/02/24 19:04:56;;;;;;;19.20;10.10;;;;;;;7.01;100.00;99855.84;214192;1285;138670;-88
2024/02/24 19:09:57;;;;;;;21.30;11.10;;;;;;;6.95;100.00;99852.39;213879;1285;140521;-89
2024/02/24 19:14:57;;;;;;;22.80;10.70;;;;;;;6.90;100.00;99860.20;214337;1288;139297;-89
2024/02/24 19:19:58;;;;;;;18.10;9.60;;;;;;;6.83;100.00;99861.04;214066;1286;140402;-90
2024/02/24 19:24:59;;;;;;;25.90;10.60;;;;;;;6.78;100.00;99862.18;214299;1285;97951;-89
2024/02/24 19:30:00;;;;;;;25.90;11.90;;;;;;;6.71;100.00;99862.70;216976;1286;140389;-88
2024/02/24 19:35:00;;;;;;;24.10;11.50;;;;;;;6.65;100.00;99864.55;216892;1291;138700;-88
2024/02/24 19:40:02;;;;;;;25.60;12.00;;;;;;;6.59;100.00;99871.30;213604;1285;141955;-89
2024/02/24 19:45:05;;;;;;;23.40;12.80;;;;;;;6.53;100.00;99869.71;214062;1285;139256;-89
2024/02/24 19:50:06;;;;;;;26.20;11.70;;;;;;;6.46;100.00;99870.54;213025;1286;139616;-88
2024/02/24 19:55:06;;;;;;;24.80;11.20;;;;;;;6.39;100.00;99877.88;213828;1285;98048;-88
2024/02/24 20:00:07;;;;;;;26.00;13.30;;;;;;;6.32;100.00;99877.84;213780;1285;139350;-91
2024/02/24 20:05:08;;;;;;;28.80;14.10;;;;;;;6.28;100.00;99876.27;214201;1285;139032;-90
2024/02/24 20:10:09;;;;;;;32.40;12.70;;;;;;;6.21;100.00;99873.95;213968;1284;140790;-88
2024/02/24 20:15:10;;;;;;;25.30;11.50;;;;;;;6.18;100.00;99882.16;214827;1285;138860;-88
2024/02/24 20:20:11;;;;;;;24.60;12.00;;;;;;;6.13;100.00;99885.97;214337;1286;140474;-88
2024/02/24 20:25:11;;;;;;;28.30;13.10;;;;;;;6.08;100.00;99889.39;213584;1291;139090;-88
2024/02/24 20:30:15;;;;;;;27.50;13.70;;;;;;;6.04;100.00;99885.09;213278;1287;274532;-88
2024/02/24 20:35:15;;;;;;;26.30;12.70;;;;;;;5.99;100.00;99888.35;213882;1286;138746;-88
2024/02/24 20:40:16;;;;;;;28.40;12.90;;;;;;;5.95;100.00;99889.50;213536;1287;140814;-88
2024/02/24 20:45:17;;;;;;;26.50;12.60;;;;;;;5.92;100.00;99898.27;213880;1287;138885;-87
2024/02/24 20:50:17;;;;;;;30.90;12.60;;;;;;;5.91;100.00;99906.20;213397;1285;140287;-87
2024/02/24 20:55:17;;;;;;;25.50;11.40;;;;;;;5.91;100.00;99908.53;214156;1284;139136;-88
2024/02/24 21:00:19;;;;;;;24.40;10.20;;;;;;;5.88;100.00;99904.16;213842;1284;140167;-88
2024/02/24 21:05:19;;;;;;;21.60;10.30;;;;;;;5.86;100.00;99913.66;214168;1288;138858;-86
2024/02/24 21:10:20;;;;;;;24.00;11.00;;;;;;;5.83;100.00;99914.53;213674;1285;140160;-88
2024/02/24 21:15:20;;;;;;;19.20;10.00;;;;;;;5.82;100.00;99915.90;215121;1284;139468;-88
2024/02/24 21:20:20;;;;;;;20.60;10.30;;;;;;;5.82;100.00;99923.39;213564;1286;139945;-88
2024/02/24 21:25:27;;;;;;;21.50;10.50;;;;;;;5.80;100.00;99922.42;214189;1285;139526;-88
2024/02/24 21:30:27;;;;;;;;;;;;;;;5.78;100.00;99922.27;214107;1285;140376;-89
2024/02/24 21:35:30;;;;;;;22.50;11.00;;;;;;;5.74;100.00;99921.63;214164;1284;125176;-87
2024/02/24 21:40:31;;;;;;;24.30;10.90;;;;;;;5.70;100.00;99921.63;213365;1285;139794;-87
2024/02/24 21:45:31;;;;;;;22.50;11.60;;;;;;;5.66;100.00;99927.55;213988;1285;139060;-87
2024/02/24 21:50:31;;;;;;;26.50;12.60;;;;;;;5.63;100.00;99926.98;213605;1285;140310;-88
2024/02/24 21:55:32;;;;;;;27.00;12.90;;;;;;;5.59;100.00;99926.30;214095;1285;140082;-87
2024/02/24 22:00:32;;;;;;;29.30;13.20;;;;;;;5.56;100.00;99930.73;213556;1286;141296;-89
2024/02/24 22:05:33;;;;;;;26.40;12.00;;;;;;;5.51;100.00;99933.83;213740;1286;138767;-88
2024/02/24 22:10:33;;;;;;;27.40;12.20;;;;;;;5.48;100.00;99931.42;213858;1285;140363;-88
2024/02/24 22:15:34;;;;;;;24.10;11.90;;;;;;;5.46;100.00;99941.95;214499;1285;139097;-88
2024/02/24 22:20:34;;;;;;;26.50;11.90;;;;;;;5.41;100.00;99951.27;213344;1285;139925;-87
2024/02/24 22:25:35;;;;;;;27.70;12.50;;;;;;;5.36;100.00;99947.80;214074;1286;139044;-87
2024/02/24 22:30:35;;;;;;;26.50;12.90;;;;;;;5.31;100.00;99950.89;213840;1286;140163;-86
2024/02/24 22:35:37;;;;;;;26.60;11.70;;;;;;;5.27;100.00;99946.81;214331;1285;138820;-88
2024/02/24 22:40:37;;;;;;;24.30;12.00;;;;;;;5.24;100.00;99951.66;213586;1293;141830;-87
2024/02/24 22:45:39;;;;;;;24.90;12.00;;;;;;;5.22;100.00;99952.15;214610;1287;139045;-87
2024/02/24 22:50:40;;;;;;;30.10;12.00;;;;;;;5.20;100.00;99955.83;214532;1285;140349;-87
2024/02/24 22:55:40;;;;;;;24.20;11.70;;;;;;;5.17;100.00;99958.96;214538;1285;139976;-86